Terminal Aerodrome Forecast
Issued by NWS Charleston, WV

Current Version | Previous Version | Graphics & Text | Print | Product List | Glossary On
Versions: 1 2 3 4 5 6 7 8 9 10 11 12 13 14 15 16 17 18 19 20 21 22 23 24 25
603
FTUS41 KRLX 050904 AAA
TAFEKN
TAF AMD
KEKN 050904Z 0509/0606 32004KT 4SM SHRA BR SCT015 OVC035
     FM051100 31003KT 3SM SHRA BR OVC008
     FM052000 33005KT 3SM SHRA BR OVC015=

USA.gov is the U.S. government's official web portal to all federal, state and local government web resources and services.